createdAt,value
2022-10-05T00:00:51.433Z,76.73
2022-10-05T00:02:55.770Z,77.38
2022-10-05T00:04:59.341Z,76.79
2022-10-05T00:07:10.762Z,77.51
2022-10-05T00:09:17.968Z,77.98
2022-10-05T00:11:21.285Z,78.73
2022-10-05T00:13:30.279Z,78.93
2022-10-05T00:15:37.068Z,78.98
2022-10-05T00:17:42.485Z,79.43
2022-10-05T00:19:46.558Z,80.00
2022-10-05T00:21:49.889Z,79.99
2022-10-05T00:23:55.000Z,79.88
2022-10-05T00:26:03.806Z,79.40
2022-10-05T00:28:16.905Z,79.74
2022-10-05T00:30:23.251Z,79.76
2022-10-05T00:32:28.149Z,79.72
2022-10-05T00:34:34.850Z,79.68
2022-10-05T00:36:39.376Z,80.15
2022-10-05T00:38:43.839Z,80.51
2022-10-05T00:41:01.725Z,80.86
2022-10-05T00:43:27.804Z,80.87
2022-10-05T00:45:36.411Z,80.90
2022-10-05T00:47:51.034Z,81.14
2022-10-05T00:50:18.995Z,81.22
2022-10-05T00:52:33.402Z,81.42
2022-10-05T00:54:43.421Z,80.92
2022-10-05T00:57:03.688Z,81.40
2022-10-05T00:59:20.262Z,81.91
2022-10-05T01:01:32.946Z,81.70
2022-10-05T01:03:49.087Z,81.72
2022-10-05T01:06:03.644Z,81.56
2022-10-05T01:08:19.895Z,82.02
2022-10-05T01:10:32.453Z,81.71
2022-10-05T01:12:48.424Z,81.53
2022-10-05T01:15:00.240Z,81.21
2022-10-05T01:17:09.545Z,81.10
2022-10-05T01:19:38.472Z,80.53
2022-10-05T01:21:50.216Z,80.22
2022-10-05T01:24:24.003Z,79.85
2022-10-05T01:26:50.534Z,79.79
2022-10-05T01:29:09.953Z,78.92
2022-10-05T01:31:21.757Z,78.76
2022-10-05T01:33:31.783Z,79.05
2022-10-05T01:35:45.542Z,78.67
2022-10-05T01:38:02.164Z,78.16
2022-10-05T01:40:11.089Z,78.24
2022-10-05T01:42:27.378Z,77.84
2022-10-05T01:44:38.671Z,78.43
2022-10-05T01:46:47.043Z,79.00
2022-10-05T01:49:04.470Z,79.27
2022-10-05T01:51:17.329Z,79.72
2022-10-05T01:53:35.200Z,79.42
2022-10-05T01:55:46.294Z,79.12
2022-10-05T01:58:01.794Z,79.72
2022-10-05T02:00:08.970Z,79.50
2022-10-05T02:02:23.518Z,79.86
2022-10-05T02:05:00.225Z,80.58
2022-10-05T02:06:59.291Z,81.71
2022-10-05T02:09:09.564Z,81.36
2022-10-05T02:11:15.113Z,80.81
2022-10-05T02:13:23.127Z,81.33
2022-10-05T02:15:33.735Z,81.25
2022-10-05T02:17:43.663Z,81.50
2022-10-05T02:19:52.911Z,81.71
2022-10-05T02:22:00.763Z,81.79
2022-10-05T02:24:10.036Z,80.87
2022-10-05T02:26:14.494Z,80.86
2022-10-05T02:28:24.605Z,81.16
2022-10-05T02:30:32.586Z,80.55
2022-10-05T02:32:41.135Z,80.52
2022-10-05T02:34:45.183Z,80.26
2022-10-05T02:37:15.676Z,79.85
2022-10-05T02:39:33.924Z,79.91
2022-10-05T02:41:49.245Z,79.98
2022-10-05T02:43:59.909Z,80.52
2022-10-05T02:46:16.921Z,81.41
2022-10-05T02:48:29.695Z,82.21
2022-10-05T02:50:42.262Z,83.08
2022-10-05T02:52:57.308Z,83.31
2022-10-05T02:55:10.451Z,83.74
2022-10-05T02:57:24.752Z,84.17
2022-10-05T02:59:36.673Z,84.47
2022-10-05T03:01:50.728Z,84.38
2022-10-05T03:04:03.483Z,84.78
2022-10-05T03:06:15.544Z,85.12
2022-10-05T03:08:25.896Z,85.70
2022-10-05T03:10:38.078Z,85.74
2022-10-05T03:12:50.783Z,85.77
2022-10-05T03:15:05.017Z,86.12
2022-10-05T03:17:16.988Z,86.67
2022-10-05T03:19:33.490Z,86.22
2022-10-05T03:21:49.626Z,86.71
2022-10-05T03:24:11.813Z,86.36
2022-10-05T03:26:33.347Z,86.89
2022-10-05T03:28:45.416Z,86.96
2022-10-05T03:30:56.178Z,87.15
2022-10-05T03:33:08.965Z,86.91
2022-10-05T03:35:19.180Z,86.83
2022-10-05T03:37:28.168Z,87.25
2022-10-05T03:39:38.099Z,86.93
2022-10-05T03:41:48.324Z,87.18
2022-10-05T03:44:22.775Z,86.71
2022-10-05T03:46:38.863Z,86.16
2022-10-05T03:48:53.502Z,86.40
2022-10-05T03:51:08.035Z,86.18
2022-10-05T03:53:19.304Z,85.72
2022-10-05T03:55:32.233Z,85.44
2022-10-05T03:57:39.872Z,85.19
2022-10-05T03:59:50.299Z,85.59
2022-10-05T04:01:58.787Z,84.54
2022-10-05T04:04:08.442Z,85.05
2022-10-05T04:06:16.580Z,84.96
2022-10-05T04:08:27.615Z,85.57
2022-10-05T04:10:39.343Z,86.34
2022-10-05T04:12:47.147Z,86.31
2022-10-05T04:14:55.930Z,86.55
2022-10-05T04:17:03.669Z,86.63
2022-10-05T04:19:16.026Z,86.47
2022-10-05T04:21:23.981Z,86.96
2022-10-05T04:23:40.090Z,87.34
2022-10-05T04:25:47.221Z,87.57
2022-10-05T04:27:55.946Z,87.50
2022-10-05T04:30:08.618Z,87.81
2022-10-05T04:32:30.466Z,88.44
2022-10-05T04:34:49.793Z,87.96
2022-10-05T04:37:00.949Z,88.10
2022-10-05T04:39:19.933Z,87.90
2022-10-05T04:41:40.287Z,88.37
2022-10-05T04:43:56.552Z,88.43
2022-10-05T04:46:14.650Z,88.31
2022-10-05T04:48:52.746Z,88.39
2022-10-05T04:51:13.116Z,88.21
2022-10-05T04:53:26.558Z,88.19
2022-10-05T04:55:36.981Z,88.35
2022-10-05T04:57:47.172Z,87.94
2022-10-05T05:00:05.695Z,87.67
2022-10-05T05:02:18.231Z,87.71
2022-10-05T05:04:52.028Z,87.79
2022-10-05T05:07:11.977Z,87.66
2022-10-05T05:09:40.619Z,87.72
2022-10-05T05:11:58.581Z,87.36
2022-10-05T05:14:30.371Z,87.31
2022-10-05T05:16:38.595Z,87.12
2022-10-05T05:18:58.674Z,87.10
2022-10-05T05:21:15.175Z,86.85
2022-10-05T05:23:31.552Z,86.89
2022-10-05T05:25:45.237Z,87.14
2022-10-05T05:27:53.160Z,86.71
2022-10-05T05:30:04.232Z,86.81
2022-10-05T05:32:22.168Z,86.89
2022-10-05T05:34:42.833Z,87.03
2022-10-05T05:36:56.607Z,86.89
2022-10-05T05:39:17.711Z,86.76
2022-10-05T05:41:28.463Z,86.88
2022-10-05T05:43:38.061Z,86.88
2022-10-05T05:45:43.444Z,86.65
2022-10-05T05:47:53.815Z,86.97
2022-10-05T05:50:13.767Z,86.67
2022-10-05T05:52:21.181Z,86.26
2022-10-05T05:54:31.660Z,86.82
2022-10-05T05:56:38.427Z,86.92
2022-10-05T05:58:49.806Z,86.80
2022-10-05T06:00:59.368Z,87.09
2022-10-05T06:03:10.610Z,87.13
2022-10-05T06:05:27.019Z,86.99
2022-10-05T06:07:32.643Z,87.02
2022-10-05T06:09:46.330Z,86.95
2022-10-05T06:12:13.614Z,86.77
2022-10-05T06:14:24.417Z,86.82
2022-10-05T06:16:36.022Z,86.95
2022-10-05T06:18:44.495Z,86.63
2022-10-05T06:20:58.782Z,86.91
2022-10-05T06:23:07.219Z,86.63
2022-10-05T06:25:22.474Z,86.37
2022-10-05T06:27:28.060Z,86.55
2022-10-05T06:29:55.295Z,86.59
2022-10-05T06:32:07.353Z,86.15
2022-10-05T06:34:29.018Z,86.20
2022-10-05T06:36:41.675Z,86.23
2022-10-05T06:39:06.218Z,85.93
2022-10-05T06:41:19.379Z,85.62
2022-10-05T06:43:40.373Z,85.63
2022-10-05T06:46:04.678Z,85.68
2022-10-05T06:48:41.873Z,85.39
2022-10-05T06:51:18.673Z,85.42
2022-10-05T06:53:44.954Z,84.98
2022-10-05T06:55:57.141Z,84.95
2022-10-05T06:58:26.361Z,84.91
2022-10-05T07:00:35.900Z,84.73
2022-10-05T07:02:46.190Z,84.18
2022-10-05T07:05:06.346Z,84.28
2022-10-05T07:07:18.482Z,84.15
2022-10-05T07:09:32.856Z,84.03
2022-10-05T07:11:58.396Z,83.85
2022-10-05T07:14:20.881Z,83.86
2022-10-05T07:16:36.183Z,83.67
2022-10-05T07:18:56.454Z,83.72
2022-10-05T07:21:05.122Z,83.29
2022-10-05T07:23:24.056Z,83.33
2022-10-05T07:25:33.870Z,83.31
2022-10-05T07:27:49.486Z,83.17
2022-10-05T07:30:02.341Z,83.27
2022-10-05T07:32:16.698Z,83.02
2022-10-05T07:34:32.094Z,83.04
2022-10-05T07:36:59.705Z,82.83
2022-10-05T07:39:10.110Z,83.12
2022-10-05T07:41:19.348Z,83.02
2022-10-05T07:43:57.520Z,83.07
2022-10-05T07:46:03.845Z,82.79
2022-10-05T07:48:16.252Z,82.20
2022-10-05T07:50:24.931Z,82.45
2022-10-05T07:52:35.215Z,82.92
2022-10-05T07:54:49.310Z,82.24
2022-10-05T07:56:59.944Z,82.41
2022-10-05T07:59:08.038Z,82.04
2022-10-05T08:01:19.256Z,82.13
2022-10-05T08:03:38.172Z,81.81
2022-10-05T08:05:43.485Z,81.97
2022-10-05T08:07:50.478Z,81.96
2022-10-05T08:09:59.499Z,81.92
2022-10-05T08:12:20.972Z,81.96
2022-10-05T08:14:33.665Z,81.96
2022-10-05T08:16:39.689Z,81.97
2022-10-05T08:18:51.341Z,82.11
2022-10-05T08:20:57.643Z,81.60
2022-10-05T08:23:05.543Z,81.54
2022-10-05T08:25:20.229Z,81.70
2022-10-05T08:27:27.720Z,81.64
2022-10-05T08:29:35.531Z,81.42
2022-10-05T08:31:44.094Z,81.30
2022-10-05T08:33:58.582Z,81.01
2022-10-05T08:36:08.492Z,81.29
2022-10-05T08:38:16.577Z,81.01
2022-10-05T08:40:53.428Z,81.07
2022-10-05T08:43:10.897Z,81.17
2022-10-05T08:46:02.211Z,80.39
2022-10-05T08:48:32.785Z,80.72
2022-10-05T08:51:03.551Z,80.57
2022-10-05T08:53:21.469Z,80.74
2022-10-05T08:55:35.810Z,80.32
2022-10-05T08:58:08.752Z,80.15
2022-10-05T09:00:17.484Z,80.24
2022-10-05T09:02:29.255Z,79.62
2022-10-05T09:04:59.829Z,79.52
2022-10-05T09:07:28.368Z,79.52
2022-10-05T09:10:19.746Z,79.09
2022-10-05T09:12:48.707Z,79.10
2022-10-05T09:15:24.856Z,78.78
2022-10-05T09:18:04.547Z,78.43
2022-10-05T09:20:19.265Z,77.94
2022-10-05T09:22:37.890Z,77.52
2022-10-05T09:24:56.599Z,77.36
2022-10-05T09:27:08.725Z,77.62
2022-10-05T09:29:51.361Z,77.87
2022-10-05T09:32:16.667Z,77.21
2022-10-05T09:34:44.619Z,77.51
2022-10-05T09:37:21.574Z,77.26
2022-10-05T09:40:07.669Z,77.04
2022-10-05T09:42:27.638Z,75.95
2022-10-05T09:45:01.914Z,76.06
2022-10-05T09:47:26.002Z,75.48
2022-10-05T09:50:08.862Z,74.87
2022-10-05T09:52:32.504Z,75.17
2022-10-05T09:55:18.859Z,73.36
2022-10-05T09:57:53.340Z,73.25
2022-10-05T10:00:17.566Z,72.63
2022-10-05T10:02:42.923Z,70.29
2022-10-05T10:05:11.820Z,70.38
2022-10-05T10:07:53.181Z,69.89
2022-10-05T10:10:34.340Z,70.13
2022-10-05T10:12:56.926Z,70.25
2022-10-05T10:15:38.938Z,71.06
2022-10-05T10:18:05.053Z,69.98
2022-10-05T10:20:26.791Z,69.84
2022-10-05T10:22:59.751Z,70.01
2022-10-05T10:25:21.273Z,69.99
2022-10-05T10:27:42.529Z,69.76
2022-10-05T10:30:10.237Z,68.28
2022-10-05T10:32:27.563Z,67.32
2022-10-05T10:34:52.455Z,67.55
2022-10-05T10:37:23.319Z,67.58
2022-10-05T10:39:40.679Z,66.74
2022-10-05T10:42:16.065Z,66.10
2022-10-05T10:44:58.828Z,66.34
2022-10-05T10:47:31.427Z,67.20
2022-10-05T10:49:54.211Z,65.85
2022-10-05T10:52:13.697Z,65.87
2022-10-05T10:54:55.646Z,64.25
2022-10-05T10:57:06.224Z,64.54
2022-10-05T10:59:56.464Z,64.25
2022-10-05T11:02:21.051Z,64.46
2022-10-05T11:04:59.246Z,66.02
2022-10-05T11:07:32.890Z,65.20
2022-10-05T11:09:57.297Z,64.82
2022-10-05T11:12:48.874Z,62.52
2022-10-05T11:15:07.799Z,63.33
2022-10-05T11:17:26.143Z,62.93
2022-10-05T11:20:02.863Z,62.33
2022-10-05T11:22:27.686Z,62.17
2022-10-05T11:24:57.299Z,61.40
2022-10-05T11:27:28.268Z,61.00
2022-10-05T11:30:04.127Z,60.74
2022-10-05T11:32:29.899Z,60.70
2022-10-05T11:35:02.064Z,59.97
2022-10-05T11:37:38.264Z,59.60
2022-10-05T11:39:46.049Z,59.17
2022-10-05T11:42:23.467Z,59.24
2022-10-05T11:44:59.806Z,58.47
2022-10-05T11:47:10.062Z,58.08
2022-10-05T11:49:27.854Z,57.54
2022-10-05T11:51:39.429Z,57.42
2022-10-05T11:53:48.647Z,57.07
2022-10-05T11:56:06.071Z,57.34
2022-10-05T11:58:16.942Z,56.33
2022-10-05T12:00:24.209Z,56.52
2022-10-05T12:02:53.195Z,55.09
2022-10-05T12:05:04.456Z,54.88
2022-10-05T12:07:16.040Z,54.60
2022-10-05T12:09:33.331Z,53.70
2022-10-05T12:11:58.474Z,53.20
2022-10-05T12:14:06.740Z,52.44
2022-10-05T12:16:18.195Z,51.98
2022-10-05T12:18:41.326Z,52.07
2022-10-05T12:20:50.359Z,52.02
2022-10-05T12:23:00.624Z,51.38
2022-10-05T12:25:19.138Z,51.91
2022-10-05T12:27:26.838Z,51.78
2022-10-05T12:29:39.434Z,50.59
2022-10-05T12:31:56.624Z,50.97
2022-10-05T12:34:09.617Z,50.06
2022-10-05T12:36:16.135Z,50.00
2022-10-05T12:38:28.417Z,49.70
2022-10-05T12:40:41.022Z,49.59
2022-10-05T12:42:51.202Z,50.44
2022-10-05T12:45:07.689Z,49.54
2022-10-05T12:47:23.752Z,50.78
2022-10-05T12:49:40.312Z,50.74
2022-10-05T12:51:49.930Z,50.95
2022-10-05T12:53:58.512Z,50.96
2022-10-05T12:56:05.752Z,50.94
2022-10-05T12:58:21.620Z,50.27
2022-10-05T13:00:25.092Z,50.44
2022-10-05T13:02:42.205Z,49.44
2022-10-05T13:04:52.362Z,50.29
2022-10-05T13:07:14.751Z,49.96
2022-10-05T13:09:24.217Z,49.79
2022-10-05T13:11:36.314Z,49.39
2022-10-05T13:13:48.959Z,49.78
2022-10-05T13:15:57.598Z,50.17
2022-10-05T13:18:18.150Z,49.65
2022-10-05T13:20:30.685Z,49.75
2022-10-05T13:22:41.055Z,49.99
2022-10-05T13:24:56.713Z,49.95
2022-10-05T13:27:04.127Z,49.50
2022-10-05T13:29:17.672Z,50.06
2022-10-05T13:31:25.584Z,50.18
2022-10-05T13:33:51.281Z,50.12
2022-10-05T13:36:04.445Z,50.90
2022-10-05T13:38:21.814Z,50.75
2022-10-05T13:40:33.375Z,50.74
2022-10-05T13:42:44.796Z,50.46
2022-10-05T13:44:52.075Z,50.34
2022-10-05T13:47:02.228Z,50.92
2022-10-05T13:49:21.167Z,51.71
2022-10-05T13:51:29.422Z,51.33
2022-10-05T13:53:38.882Z,50.43
2022-10-05T13:55:47.581Z,50.61
2022-10-05T13:57:58.781Z,51.01
2022-10-05T14:00:07.086Z,51.40
2022-10-05T14:02:21.692Z,51.66
2022-10-05T14:04:29.639Z,51.16
2022-10-05T14:06:36.374Z,50.73
2022-10-05T14:08:49.591Z,50.64
2022-10-05T14:10:53.763Z,50.81
2022-10-05T14:12:57.219Z,50.22
2022-10-05T14:15:22.207Z,50.36
2022-10-05T14:17:40.794Z,49.66
2022-10-05T14:19:50.951Z,49.03
2022-10-05T14:22:01.037Z,49.51
2022-10-05T14:24:42.504Z,50.00
2022-10-05T14:26:52.463Z,49.91
2022-10-05T14:29:01.985Z,49.56
2022-10-05T14:31:16.408Z,49.67
2022-10-05T14:33:21.969Z,49.49
2022-10-05T14:35:30.338Z,49.23
2022-10-05T14:37:44.227Z,49.83
2022-10-05T14:39:49.827Z,49.86
2022-10-05T14:41:53.181Z,50.18
2022-10-05T14:44:03.082Z,50.43
2022-10-05T14:46:25.407Z,49.88
2022-10-05T14:48:42.235Z,49.87
2022-10-05T14:50:59.452Z,51.10
2022-10-05T14:53:17.462Z,50.17
2022-10-05T14:55:49.789Z,51.32
2022-10-05T14:58:06.565Z,51.49
2022-10-05T15:00:14.352Z,51.42
2022-10-05T15:02:32.775Z,52.18
2022-10-05T15:04:45.302Z,51.33
2022-10-05T15:07:00.645Z,51.89
2022-10-05T15:09:45.533Z,52.17
2022-10-05T15:11:51.922Z,52.43
2022-10-05T15:13:57.404Z,52.18
2022-10-05T15:16:06.218Z,51.99
2022-10-05T15:18:19.579Z,51.70
2022-10-05T15:20:26.266Z,51.89
2022-10-05T15:22:41.232Z,51.90
2022-10-05T15:24:53.155Z,52.25
2022-10-05T15:26:59.525Z,51.51
2022-10-05T15:29:11.206Z,51.32
2022-10-05T15:31:23.608Z,51.64
2022-10-05T15:33:35.502Z,52.59
2022-10-05T15:35:50.127Z,52.70
2022-10-05T15:37:59.701Z,52.90
2022-10-05T15:40:07.762Z,54.10
2022-10-05T15:42:15.172Z,54.65
2022-10-05T15:44:27.673Z,55.06
2022-10-05T15:46:35.715Z,54.97
2022-10-05T15:48:49.443Z,55.44
2022-10-05T15:51:01.277Z,56.46
2022-10-05T15:53:14.788Z,56.30
2022-10-05T15:55:43.222Z,56.79
2022-10-05T15:57:53.275Z,56.76
2022-10-05T16:00:04.136Z,57.01
2022-10-05T16:02:19.796Z,57.57
2022-10-05T16:04:30.626Z,57.65
2022-10-05T16:06:57.841Z,57.83
2022-10-05T16:09:14.229Z,57.76
2022-10-05T16:11:31.022Z,58.04
2022-10-05T16:13:45.390Z,58.49
2022-10-05T16:15:57.429Z,58.77
2022-10-05T16:18:32.218Z,59.10
2022-10-05T16:20:47.159Z,58.89
2022-10-05T16:22:59.349Z,59.47
2022-10-05T16:25:22.372Z,59.19
2022-10-05T16:27:38.911Z,59.66
2022-10-05T16:29:51.601Z,58.97
2022-10-05T16:31:58.572Z,59.34
2022-10-05T16:34:09.406Z,59.77
2022-10-05T16:36:24.739Z,59.42
2022-10-05T16:38:35.305Z,59.08
2022-10-05T16:40:46.199Z,58.86
2022-10-05T16:42:59.621Z,59.38
2022-10-05T16:45:14.925Z,58.75
2022-10-05T16:47:33.480Z,58.81
2022-10-05T16:49:48.303Z,59.58
2022-10-05T16:51:58.995Z,59.45
2022-10-05T16:54:14.079Z,59.02
2022-10-05T16:56:21.825Z,59.15
2022-10-05T16:58:29.676Z,58.71
2022-10-05T17:00:46.487Z,58.89
2022-10-05T17:03:05.788Z,58.72
2022-10-05T17:05:36.531Z,58.86
2022-10-05T17:07:57.031Z,58.49
2022-10-05T17:10:29.244Z,58.68
2022-10-05T17:12:47.801Z,58.81
2022-10-05T17:15:09.808Z,58.76
2022-10-05T17:17:39.365Z,58.88
2022-10-05T17:19:59.976Z,59.96
2022-10-05T17:22:12.449Z,61.21
2022-10-05T17:24:28.934Z,62.12
2022-10-05T17:26:56.462Z,62.45
2022-10-05T17:29:13.679Z,62.43
2022-10-05T17:31:18.774Z,62.72
2022-10-05T17:33:25.832Z,62.74
2022-10-05T17:35:50.703Z,62.83
2022-10-05T17:38:14.309Z,62.43
2022-10-05T17:40:33.785Z,62.77
2022-10-05T17:42:48.669Z,63.11
2022-10-05T17:44:55.031Z,63.56
2022-10-05T17:47:00.105Z,63.20
2022-10-05T17:49:19.562Z,63.30
2022-10-05T17:52:18.499Z,63.51
2022-10-05T17:54:41.435Z,63.40
2022-10-05T17:57:20.288Z,63.08
2022-10-05T17:59:39.726Z,63.20
2022-10-05T18:02:05.001Z,63.34
2022-10-05T18:04:39.220Z,63.57
2022-10-05T18:06:48.048Z,63.50
2022-10-05T18:08:51.960Z,63.57
2022-10-05T18:11:17.079Z,63.47
2022-10-05T18:13:35.635Z,64.27
2022-10-05T18:15:50.163Z,63.65
2022-10-05T18:17:58.041Z,63.61
2022-10-05T18:20:31.378Z,63.89
2022-10-05T18:22:35.020Z,63.28
2022-10-05T18:25:03.772Z,63.03
2022-10-05T18:27:31.798Z,63.10
2022-10-05T18:30:05.494Z,63.61
2022-10-05T18:32:22.271Z,63.16
2022-10-05T18:34:35.890Z,63.21
2022-10-05T18:36:54.555Z,63.47
2022-10-05T18:39:12.545Z,63.40
2022-10-05T18:41:23.615Z,63.76
2022-10-05T18:43:35.643Z,64.07
2022-10-05T18:45:50.295Z,63.82
2022-10-05T18:48:12.130Z,63.80
2022-10-05T18:50:26.796Z,63.65
2022-10-05T18:52:43.929Z,63.99
2022-10-05T18:54:58.438Z,63.88
2022-10-05T18:57:34.270Z,63.82
2022-10-05T18:59:46.391Z,63.61
2022-10-05T19:01:59.446Z,62.99
2022-10-05T19:04:16.909Z,63.04
2022-10-05T19:06:27.367Z,63.02
2022-10-05T19:08:40.186Z,62.78
2022-10-05T19:10:46.673Z,63.41
2022-10-05T19:13:12.007Z,63.52
2022-10-05T19:15:25.347Z,63.64
2022-10-05T19:17:45.618Z,63.65
2022-10-05T19:20:04.228Z,63.57
2022-10-05T19:22:19.693Z,63.67
2022-10-05T19:24:41.656Z,63.42
2022-10-05T19:26:57.347Z,63.96
2022-10-05T19:29:11.555Z,63.44
2022-10-05T19:31:30.574Z,63.56
2022-10-05T19:33:47.295Z,63.32
2022-10-05T19:36:04.070Z,64.01
2022-10-05T19:38:21.102Z,63.63
2022-10-05T19:40:31.516Z,63.66
2022-10-05T19:42:54.182Z,63.51
2022-10-05T19:45:07.043Z,63.38
2022-10-05T19:47:18.568Z,63.18
2022-10-05T19:49:44.662Z,63.20
2022-10-05T19:51:49.992Z,63.44
2022-10-05T19:53:56.937Z,63.81
2022-10-05T19:56:17.007Z,63.63
2022-10-05T19:58:22.836Z,63.68
2022-10-05T20:00:31.225Z,63.75
2022-10-05T20:02:37.518Z,63.43
2022-10-05T20:04:47.478Z,63.59
2022-10-05T20:06:51.161Z,63.40
2022-10-05T20:08:59.827Z,63.50
2022-10-05T20:11:12.392Z,63.68
2022-10-05T20:13:23.368Z,63.59
2022-10-05T20:15:45.976Z,63.50
2022-10-05T20:18:07.740Z,63.91
2022-10-05T20:20:32.098Z,63.60
2022-10-05T20:22:37.977Z,64.05
2022-10-05T20:24:53.438Z,64.47
2022-10-05T20:27:05.541Z,64.29
2022-10-05T20:29:09.866Z,64.08
2022-10-05T20:31:14.453Z,64.33
2022-10-05T20:33:17.879Z,64.54
2022-10-05T20:35:22.962Z,64.72
2022-10-05T20:37:26.821Z,64.55
2022-10-05T20:39:31.246Z,64.94
2022-10-05T20:41:36.410Z,64.85
2022-10-05T20:43:40.440Z,64.58
2022-10-05T20:45:44.226Z,64.82
2022-10-05T20:47:47.737Z,64.92
2022-10-05T20:49:53.166Z,64.81
2022-10-05T20:51:56.539Z,64.94
2022-10-05T20:53:59.844Z,65.28
2022-10-05T20:56:04.585Z,64.98
2022-10-05T20:58:11.034Z,65.23
2022-10-05T21:00:15.258Z,65.10
2022-10-05T21:02:19.876Z,65.35
2022-10-05T21:04:25.475Z,65.67
2022-10-05T21:06:29.439Z,65.54
2022-10-05T21:08:32.776Z,65.81
2022-10-05T21:10:36.882Z,65.66
2022-10-05T21:12:41.051Z,65.86
2022-10-05T21:14:46.955Z,65.81
2022-10-05T21:16:50.322Z,65.97
2022-10-05T21:18:53.689Z,65.72
2022-10-05T21:21:01.987Z,66.56
2022-10-05T21:23:05.569Z,66.60
2022-10-05T21:25:09.866Z,66.51
2022-10-05T21:27:13.197Z,66.32
2022-10-05T21:29:16.626Z,66.33
2022-10-05T21:31:21.581Z,66.30
2022-10-05T21:33:25.308Z,66.40
2022-10-05T21:35:28.943Z,66.40
2022-10-05T21:37:32.276Z,66.50
2022-10-05T21:39:36.511Z,66.59
2022-10-05T21:41:39.816Z,66.75
2022-10-05T21:43:43.495Z,66.71
2022-10-05T21:45:48.016Z,66.74
2022-10-05T21:47:52.895Z,66.96
2022-10-05T21:49:56.401Z,67.15
2022-10-05T21:52:01.933Z,66.96
2022-10-05T21:54:10.196Z,66.84
2022-10-05T21:56:16.778Z,67.10
2022-10-05T21:58:22.646Z,67.01
2022-10-05T22:00:25.994Z,67.71
2022-10-05T22:02:29.320Z,67.30
2022-10-05T22:04:34.072Z,67.37
2022-10-05T22:06:37.681Z,67.54
2022-10-05T22:08:41.641Z,67.57
2022-10-05T22:10:44.962Z,68.14
2022-10-05T22:12:48.372Z,68.65
2022-10-05T22:14:51.702Z,69.54
2022-10-05T22:16:55.298Z,70.23
2022-10-05T22:18:59.183Z,71.47
2022-10-05T22:21:05.028Z,71.73
2022-10-05T22:23:08.393Z,72.38
2022-10-05T22:25:11.771Z,73.41
2022-10-05T22:27:15.738Z,74.81
2022-10-05T22:29:19.714Z,76.38
2022-10-05T22:31:23.179Z,77.44
2022-10-05T22:33:26.482Z,78.61
2022-10-05T22:35:30.093Z,78.99
2022-10-05T22:37:38.180Z,79.05
2022-10-05T22:39:41.888Z,80.82
2022-10-05T22:41:45.647Z,81.38
2022-10-05T22:43:50.726Z,81.85
2022-10-05T22:45:54.382Z,81.56
2022-10-05T22:47:57.915Z,81.93
2022-10-05T22:50:01.241Z,82.45
2022-10-05T22:52:04.766Z,82.64
2022-10-05T22:54:09.445Z,82.59
2022-10-05T22:56:14.368Z,82.20
2022-10-05T22:58:17.764Z,81.66
2022-10-05T23:00:27.614Z,81.57
2022-10-05T23:02:37.178Z,81.21
2022-10-05T23:04:40.596Z,80.77
2022-10-05T23:06:43.919Z,80.32
2022-10-05T23:08:47.859Z,79.61
2022-10-05T23:10:52.661Z,79.14
2022-10-05T23:13:00.738Z,79.53
2022-10-05T23:15:05.776Z,80.01
2022-10-05T23:17:09.061Z,80.10
2022-10-05T23:19:12.905Z,80.06
2022-10-05T23:21:16.959Z,79.51
2022-10-05T23:23:20.509Z,79.52
2022-10-05T23:25:23.784Z,78.79
2022-10-05T23:27:28.720Z,77.41
2022-10-05T23:29:31.970Z,77.45
2022-10-05T23:31:36.869Z,77.39
2022-10-05T23:33:40.239Z,76.61
2022-10-05T23:35:43.544Z,76.45
2022-10-05T23:37:46.816Z,76.57
2022-10-05T23:39:50.106Z,76.53
2022-10-05T23:41:53.492Z,76.94
2022-10-05T23:43:58.195Z,77.01
2022-10-05T23:46:01.911Z,77.63
2022-10-05T23:48:05.387Z,78.33
2022-10-05T23:50:10.339Z,80.30
2022-10-05T23:52:15.554Z,81.47
2022-10-05T23:54:18.867Z,82.88
2022-10-05T23:56:22.197Z,82.86
2022-10-05T23:58:26.080Z,83.57
